sensor_id;sensor_type;location;lat;lon;timestamp;P1;durP1;ratioP1;P2;durP2;ratioP2
73266;SDS011;61495;53.400;7.608;2023-11-18T00:02:15;10.82;;;5.75;;
73266;SDS011;61495;53.400;7.608;2023-11-18T00:04:41;11.68;;;5.95;;
73266;SDS011;61495;53.400;7.608;2023-11-18T00:07:06;10.68;;;5.85;;
73266;SDS011;61495;53.400;7.608;2023-11-18T00:09:31;9.77;;;5.82;;
73266;SDS011;61495;53.400;7.608;2023-11-18T00:11:57;9.85;;;5.38;;
73266;SDS011;61495;53.400;7.608;2023-11-18T00:14:22;9.80;;;5.38;;
73266;SDS011;61495;53.400;7.608;2023-11-18T00:16:47;12.35;;;6.82;;
73266;SDS011;61495;53.400;7.608;2023-11-18T00:19:13;12.38;;;6.03;;
73266;SDS011;61495;53.400;7.608;2023-11-18T00:21:38;9.40;;;5.53;;
73266;SDS011;61495;53.400;7.608;2023-11-18T00:24:04;11.30;;;6.28;;
73266;SDS011;61495;53.400;7.608;2023-11-18T00:26:30;11.50;;;5.53;;
73266;SDS011;61495;53.400;7.608;2023-11-18T00:28:55;9.48;;;5.47;;
73266;SDS011;61495;53.400;7.608;2023-11-18T00:31:21;10.73;;;6.18;;
73266;SDS011;61495;53.400;7.608;2023-11-18T00:33:46;11.45;;;6.80;;
73266;SDS011;61495;53.400;7.608;2023-11-18T00:36:12;12.35;;;6.45;;
73266;SDS011;61495;53.400;7.608;2023-11-18T00:38:37;13.57;;;6.38;;
73266;SDS011;61495;53.400;7.608;2023-11-18T00:41:02;16.17;;;8.05;;
73266;SDS011;61495;53.400;7.608;2023-11-18T00:43:29;12.05;;;7.13;;
73266;SDS011;61495;53.400;7.608;2023-11-18T00:45:56;15.77;;;7.38;;
73266;SDS011;61495;53.400;7.608;2023-11-18T00:48:24;14.80;;;7.18;;
73266;SDS011;61495;53.400;7.608;2023-11-18T00:50:49;12.02;;;6.88;;
73266;SDS011;61495;53.400;7.608;2023-11-18T00:53:16;13.55;;;6.72;;
73266;SDS011;61495;53.400;7.608;2023-11-18T00:55:42;13.65;;;6.88;;
73266;SDS011;61495;53.400;7.608;2023-11-18T00:58:08;14.60;;;6.38;;
73266;SDS011;61495;53.400;7.608;2023-11-18T01:00:33;13.35;;;6.85;;
73266;SDS011;61495;53.400;7.608;2023-11-18T01:02:59;13.55;;;6.88;;
73266;SDS011;61495;53.400;7.608;2023-11-18T01:05:24;15.13;;;7.25;;
73266;SDS011;61495;53.400;7.608;2023-11-18T01:07:49;17.95;;;8.27;;
73266;SDS011;61495;53.400;7.608;2023-11-18T01:10:15;12.20;;;7.05;;
73266;SDS011;61495;53.400;7.608;2023-11-18T01:12:40;20.30;;;7.63;;
73266;SDS011;61495;53.400;7.608;2023-11-18T01:15:06;15.60;;;8.02;;
73266;SDS011;61495;53.400;7.608;2023-11-18T01:17:35;22.20;;;7.88;;
73266;SDS011;61495;53.400;7.608;2023-11-18T01:20:00;18.52;;;8.38;;
73266;SDS011;61495;53.400;7.608;2023-11-18T01:22:31;19.30;;;8.15;;
73266;SDS011;61495;53.400;7.608;2023-11-18T01:24:56;16.27;;;7.03;;
73266;SDS011;61495;53.400;7.608;2023-11-18T01:27:23;16.33;;;7.95;;
73266;SDS011;61495;53.400;7.608;2023-11-18T01:29:48;17.20;;;8.07;;
73266;SDS011;61495;53.400;7.608;2023-11-18T01:32:13;16.90;;;8.48;;
73266;SDS011;61495;53.400;7.608;2023-11-18T01:34:39;18.73;;;8.93;;
73266;SDS011;61495;53.400;7.608;2023-11-18T01:37:05;22.30;;;10.15;;
73266;SDS011;61495;53.400;7.608;2023-11-18T01:39:34;19.65;;;8.88;;
73266;SDS011;61495;53.400;7.608;2023-11-18T01:41:59;19.73;;;9.38;;
73266;SDS011;61495;53.400;7.608;2023-11-18T01:44:25;19.00;;;9.38;;
73266;SDS011;61495;53.400;7.608;2023-11-18T01:46:53;17.25;;;8.57;;
73266;SDS011;61495;53.400;7.608;2023-11-18T01:49:22;19.85;;;9.20;;
73266;SDS011;61495;53.400;7.608;2023-11-18T01:51:49;18.15;;;9.05;;
73266;SDS011;61495;53.400;7.608;2023-11-18T01:54:16;18.45;;;8.60;;
73266;SDS011;61495;53.400;7.608;2023-11-18T01:56:44;21.60;;;10.00;;
73266;SDS011;61495;53.400;7.608;2023-11-18T01:59:12;24.02;;;12.20;;
73266;SDS011;61495;53.400;7.608;2023-11-18T02:01:44;21.63;;;10.57;;
73266;SDS011;61495;53.400;7.608;2023-11-18T02:04:13;22.52;;;11.13;;
73266;SDS011;61495;53.400;7.608;2023-11-18T02:06:39;23.23;;;11.32;;
73266;SDS011;61495;53.400;7.608;2023-11-18T02:09:05;28.15;;;13.13;;
73266;SDS011;61495;53.400;7.608;2023-11-18T02:11:31;25.63;;;14.32;;
73266;SDS011;61495;53.400;7.608;2023-11-18T02:14:19;23.20;;;12.40;;
73266;SDS011;61495;53.400;7.608;2023-11-18T02:16:45;24.50;;;13.25;;
73266;SDS011;61495;53.400;7.608;2023-11-18T02:19:19;22.73;;;12.65;;
73266;SDS011;61495;53.400;7.608;2023-11-18T02:21:47;28.13;;;13.13;;
73266;SDS011;61495;53.400;7.608;2023-11-18T02:24:30;27.20;;;13.13;;
73266;SDS011;61495;53.400;7.608;2023-11-18T02:27:02;22.88;;;12.82;;
73266;SDS011;61495;53.400;7.608;2023-11-18T02:29:38;23.02;;;14.10;;
73266;SDS011;61495;53.400;7.608;2023-11-18T02:35:09;24.15;;;13.75;;
73266;SDS011;61495;53.400;7.608;2023-11-18T02:37:49;25.85;;;13.88;;
73266;SDS011;61495;53.400;7.608;2023-11-18T02:40:18;23.63;;;13.48;;
73266;SDS011;61495;53.400;7.608;2023-11-18T02:42:44;26.98;;;13.00;;
73266;SDS011;61495;53.400;7.608;2023-11-18T02:45:11;22.50;;;12.23;;
73266;SDS011;61495;53.400;7.608;2023-11-18T02:47:42;22.23;;;12.35;;
73266;SDS011;61495;53.400;7.608;2023-11-18T02:50:09;27.40;;;12.77;;
73266;SDS011;61495;53.400;7.608;2023-11-18T02:52:38;25.83;;;12.95;;
73266;SDS011;61495;53.400;7.608;2023-11-18T02:55:04;22.00;;;12.18;;
73266;SDS011;61495;53.400;7.608;2023-11-18T02:57:34;19.98;;;12.57;;
73266;SDS011;61495;53.400;7.608;2023-11-18T03:00:03;22.70;;;13.15;;
73266;SDS011;61495;53.400;7.608;2023-11-18T03:02:36;23.58;;;11.98;;
73266;SDS011;61495;53.400;7.608;2023-11-18T03:05:04;20.45;;;11.95;;
73266;SDS011;61495;53.400;7.608;2023-11-18T03:07:31;25.73;;;12.85;;
73266;SDS011;61495;53.400;7.608;2023-11-18T03:09:57;23.17;;;12.18;;
73266;SDS011;61495;53.400;7.608;2023-11-18T03:12:22;22.35;;;11.70;;
73266;SDS011;61495;53.400;7.608;2023-11-18T03:14:52;19.80;;;11.40;;
73266;SDS011;61495;53.400;7.608;2023-11-18T03:17:18;23.38;;;13.43;;
73266;SDS011;61495;53.400;7.608;2023-11-18T03:19:45;23.63;;;12.73;;
73266;SDS011;61495;53.400;7.608;2023-11-18T03:22:10;20.30;;;12.10;;
73266;SDS011;61495;53.400;7.608;2023-11-18T03:24:37;22.33;;;12.55;;
73266;SDS011;61495;53.400;7.608;2023-11-18T03:27:03;26.02;;;13.02;;
73266;SDS011;61495;53.400;7.608;2023-11-18T03:29:28;23.25;;;12.90;;
73266;SDS011;61495;53.400;7.608;2023-11-18T03:31:54;24.60;;;13.23;;
73266;SDS011;61495;53.400;7.608;2023-11-18T03:34:19;24.02;;;12.65;;
73266;SDS011;61495;53.400;7.608;2023-11-18T03:36:47;23.90;;;12.05;;
73266;SDS011;61495;53.400;7.608;2023-11-18T03:39:13;23.00;;;13.70;;
73266;SDS011;61495;53.400;7.608;2023-11-18T03:41:39;24.08;;;13.85;;
73266;SDS011;61495;53.400;7.608;2023-11-18T03:44:05;21.65;;;13.02;;
73266;SDS011;61495;53.400;7.608;2023-11-18T03:46:30;22.20;;;13.52;;
73266;SDS011;61495;53.400;7.608;2023-11-18T03:48:59;22.77;;;13.15;;
73266;SDS011;61495;53.400;7.608;2023-11-18T03:51:26;27.08;;;14.13;;
73266;SDS011;61495;53.400;7.608;2023-11-18T03:53:51;22.10;;;12.65;;
73266;SDS011;61495;53.400;7.608;2023-11-18T03:56:17;23.75;;;14.43;;
73266;SDS011;61495;53.400;7.608;2023-11-18T03:58:46;25.15;;;13.73;;
73266;SDS011;61495;53.400;7.608;2023-11-18T04:01:21;24.42;;;13.45;;
73266;SDS011;61495;53.400;7.608;2023-11-18T04:03:46;25.15;;;13.82;;
73266;SDS011;61495;53.400;7.608;2023-11-18T04:06:12;25.92;;;14.75;;
73266;SDS011;61495;53.400;7.608;2023-11-18T04:08:38;25.67;;;13.75;;
73266;SDS011;61495;53.400;7.608;2023-11-18T04:11:07;25.92;;;14.25;;
73266;SDS011;61495;53.400;7.608;2023-11-18T04:13:32;23.23;;;13.00;;
73266;SDS011;61495;53.400;7.608;2023-11-18T04:15:58;25.98;;;13.70;;
73266;SDS011;61495;53.400;7.608;2023-11-18T04:18:23;24.27;;;13.50;;
73266;SDS011;61495;53.400;7.608;2023-11-18T04:20:49;26.38;;;13.85;;
73266;SDS011;61495;53.400;7.608;2023-11-18T04:23:14;27.20;;;13.65;;
73266;SDS011;61495;53.400;7.608;2023-11-18T04:25:40;26.58;;;14.23;;
73266;SDS011;61495;53.400;7.608;2023-11-18T04:28:05;24.50;;;14.50;;
73266;SDS011;61495;53.400;7.608;2023-11-18T04:30:30;24.20;;;13.43;;
73266;SDS011;61495;53.400;7.608;2023-11-18T04:32:56;24.75;;;13.20;;
73266;SDS011;61495;53.400;7.608;2023-11-18T04:35:21;26.35;;;14.38;;
73266;SDS011;61495;53.400;7.608;2023-11-18T04:37:47;24.50;;;13.02;;
73266;SDS011;61495;53.400;7.608;2023-11-18T04:40:13;25.63;;;13.00;;
73266;SDS011;61495;53.400;7.608;2023-11-18T04:42:39;23.65;;;13.75;;
73266;SDS011;61495;53.400;7.608;2023-11-18T04:45:05;25.70;;;12.68;;
73266;SDS011;61495;53.400;7.608;2023-11-18T04:47:31;28.58;;;13.73;;
73266;SDS011;61495;53.400;7.608;2023-11-18T04:49:56;24.90;;;12.65;;
73266;SDS011;61495;53.400;7.608;2023-11-18T04:52:21;24.58;;;13.82;;
73266;SDS011;61495;53.400;7.608;2023-11-18T04:54:47;25.48;;;14.48;;
73266;SDS011;61495;53.400;7.608;2023-11-18T04:57:13;22.92;;;12.30;;
73266;SDS011;61495;53.400;7.608;2023-11-18T04:59:39;24.42;;;12.73;;
73266;SDS011;61495;53.400;7.608;2023-11-18T05:02:04;25.42;;;13.20;;
73266;SDS011;61495;53.400;7.608;2023-11-18T05:04:31;25.23;;;13.30;;
73266;SDS011;61495;53.400;7.608;2023-11-18T05:06:56;25.15;;;13.75;;
73266;SDS011;61495;53.400;7.608;2023-11-18T05:09:22;25.67;;;13.50;;
73266;SDS011;61495;53.400;7.608;2023-11-18T05:11:47;26.77;;;13.45;;
73266;SDS011;61495;53.400;7.608;2023-11-18T05:14:13;24.10;;;13.30;;
73266;SDS011;61495;53.400;7.608;2023-11-18T05:16:39;26.52;;;12.75;;
73266;SDS011;61495;53.400;7.608;2023-11-18T05:19:04;26.38;;;12.07;;
73266;SDS011;61495;53.400;7.608;2023-11-18T05:21:30;23.67;;;13.20;;
73266;SDS011;61495;53.400;7.608;2023-11-18T05:23:55;27.40;;;13.52;;
73266;SDS011;61495;53.400;7.608;2023-11-18T05:26:22;24.63;;;12.77;;
73266;SDS011;61495;53.400;7.608;2023-11-18T05:28:47;23.33;;;12.52;;
73266;SDS011;61495;53.400;7.608;2023-11-18T05:31:15;23.67;;;12.82;;
73266;SDS011;61495;53.400;7.608;2023-11-18T05:33:41;23.63;;;12.82;;
73266;SDS011;61495;53.400;7.608;2023-11-18T05:36:07;22.73;;;11.95;;
73266;SDS011;61495;53.400;7.608;2023-11-18T05:38:33;26.05;;;11.60;;
73266;SDS011;61495;53.400;7.608;2023-11-18T05:41:00;23.35;;;11.73;;
73266;SDS011;61495;53.400;7.608;2023-11-18T05:43:29;27.60;;;13.52;;
73266;SDS011;61495;53.400;7.608;2023-11-18T05:46:02;29.67;;;14.30;;
73266;SDS011;61495;53.400;7.608;2023-11-18T05:48:46;30.33;;;13.57;;
73266;SDS011;61495;53.400;7.608;2023-11-18T05:51:12;25.38;;;13.35;;
73266;SDS011;61495;53.400;7.608;2023-11-18T05:53:41;30.65;;;13.25;;
73266;SDS011;61495;53.400;7.608;2023-11-18T05:56:10;28.02;;;14.60;;
73266;SDS011;61495;53.400;7.608;2023-11-18T05:58:35;26.88;;;12.82;;
73266;SDS011;61495;53.400;7.608;2023-11-18T06:01:01;23.05;;;12.60;;
73266;SDS011;61495;53.400;7.608;2023-11-18T06:03:27;25.75;;;12.73;;
73266;SDS011;61495;53.400;7.608;2023-11-18T06:05:52;21.77;;;11.45;;
73266;SDS011;61495;53.400;7.608;2023-11-18T06:08:18;23.42;;;11.32;;
73266;SDS011;61495;53.400;7.608;2023-11-18T06:10:43;27.58;;;11.90;;
73266;SDS011;61495;53.400;7.608;2023-11-18T06:13:11;23.40;;;11.52;;
73266;SDS011;61495;53.400;7.608;2023-11-18T06:15:38;25.67;;;11.32;;
73266;SDS011;61495;53.400;7.608;2023-11-18T06:18:04;25.65;;;12.75;;
73266;SDS011;61495;53.400;7.608;2023-11-18T06:20:30;21.42;;;11.80;;
73266;SDS011;61495;53.400;7.608;2023-11-18T06:22:56;23.20;;;10.82;;
73266;SDS011;61495;53.400;7.608;2023-11-18T06:25:22;25.52;;;11.43;;
73266;SDS011;61495;53.400;7.608;2023-11-18T06:27:50;25.95;;;12.18;;
73266;SDS011;61495;53.400;7.608;2023-11-18T06:30:18;21.63;;;10.82;;
73266;SDS011;61495;53.400;7.608;2023-11-18T06:32:44;22.42;;;11.13;;
73266;SDS011;61495;53.400;7.608;2023-11-18T06:35:12;22.60;;;11.50;;
73266;SDS011;61495;53.400;7.608;2023-11-18T06:37:39;24.13;;;12.20;;
73266;SDS011;61495;53.400;7.608;2023-11-18T06:40:05;22.05;;;11.43;;
73266;SDS011;61495;53.400;7.608;2023-11-18T06:42:41;20.17;;;10.45;;
73266;SDS011;61495;53.400;7.608;2023-11-18T06:45:12;23.08;;;10.93;;
73266;SDS011;61495;53.400;7.608;2023-11-18T06:47:38;24.15;;;10.70;;
73266;SDS011;61495;53.400;7.608;2023-11-18T06:50:08;21.63;;;11.18;;
73266;SDS011;61495;53.400;7.608;2023-11-18T06:52:36;20.17;;;10.25;;
73266;SDS011;61495;53.400;7.608;2023-11-18T06:55:03;20.33;;;10.10;;
73266;SDS011;61495;53.400;7.608;2023-11-18T06:57:29;23.30;;;10.90;;
73266;SDS011;61495;53.400;7.608;2023-11-18T06:59:54;22.45;;;10.85;;
73266;SDS011;61495;53.400;7.608;2023-11-18T07:02:20;22.85;;;10.43;;
73266;SDS011;61495;53.400;7.608;2023-11-18T07:04:46;21.55;;;10.23;;
73266;SDS011;61495;53.400;7.608;2023-11-18T07:07:11;25.17;;;10.57;;
73266;SDS011;61495;53.400;7.608;2023-11-18T07:09:37;22.80;;;11.30;;
73266;SDS011;61495;53.400;7.608;2023-11-18T07:12:04;22.67;;;12.40;;
73266;SDS011;61495;53.400;7.608;2023-11-18T07:14:30;24.30;;;11.98;;
73266;SDS011;61495;53.400;7.608;2023-11-18T07:16:55;26.92;;;12.05;;
73266;SDS011;61495;53.400;7.608;2023-11-18T07:19:21;25.60;;;11.07;;
73266;SDS011;61495;53.400;7.608;2023-11-18T07:21:46;29.40;;;12.13;;
73266;SDS011;61495;53.400;7.608;2023-11-18T07:24:12;28.02;;;12.10;;
73266;SDS011;61495;53.400;7.608;2023-11-18T07:26:38;28.20;;;12.80;;
73266;SDS011;61495;53.400;7.608;2023-11-18T07:29:03;27.70;;;13.15;;
73266;SDS011;61495;53.400;7.608;2023-11-18T07:31:29;25.48;;;11.85;;
73266;SDS011;61495;53.400;7.608;2023-11-18T07:33:54;27.52;;;12.40;;
73266;SDS011;61495;53.400;7.608;2023-11-18T07:36:21;27.92;;;11.93;;
73266;SDS011;61495;53.400;7.608;2023-11-18T07:38:47;29.02;;;12.80;;
73266;SDS011;61495;53.400;7.608;2023-11-18T07:41:12;36.05;;;14.77;;
73266;SDS011;61495;53.400;7.608;2023-11-18T07:43:51;30.52;;;13.25;;
73266;SDS011;61495;53.400;7.608;2023-11-18T07:46:23;29.88;;;13.25;;
73266;SDS011;61495;53.400;7.608;2023-11-18T07:48:50;31.05;;;13.95;;
73266;SDS011;61495;53.400;7.608;2023-11-18T07:51:20;29.23;;;12.73;;
73266;SDS011;61495;53.400;7.608;2023-11-18T07:53:49;33.13;;;14.60;;
73266;SDS011;61495;53.400;7.608;2023-11-18T07:56:15;29.58;;;14.63;;
73266;SDS011;61495;53.400;7.608;2023-11-18T07:58:44;29.48;;;15.05;;
73266;SDS011;61495;53.400;7.608;2023-11-18T08:01:13;29.83;;;14.45;;
73266;SDS011;61495;53.400;7.608;2023-11-18T08:03:41;32.00;;;14.45;;
73266;SDS011;61495;53.400;7.608;2023-11-18T08:06:07;30.90;;;13.05;;
73266;SDS011;61495;53.400;7.608;2023-11-18T08:08:33;33.75;;;15.55;;
73266;SDS011;61495;53.400;7.608;2023-11-18T08:11:07;29.02;;;14.10;;
73266;SDS011;61495;53.400;7.608;2023-11-18T08:13:35;33.50;;;14.43;;
73266;SDS011;61495;53.400;7.608;2023-11-18T08:16:00;29.42;;;13.20;;
73266;SDS011;61495;53.400;7.608;2023-11-18T08:18:26;28.05;;;14.27;;
73266;SDS011;61495;53.400;7.608;2023-11-18T08:20:52;26.42;;;13.57;;
73266;SDS011;61495;53.400;7.608;2023-11-18T08:23:18;31.10;;;14.88;;
73266;SDS011;61495;53.400;7.608;2023-11-18T08:25:44;28.33;;;13.73;;
73266;SDS011;61495;53.400;7.608;2023-11-18T08:28:11;27.33;;;13.55;;
73266;SDS011;61495;53.400;7.608;2023-11-18T08:30:38;30.23;;;14.07;;
73266;SDS011;61495;53.400;7.608;2023-11-18T08:33:04;29.02;;;13.98;;
73266;SDS011;61495;53.400;7.608;2023-11-18T08:35:33;31.95;;;14.20;;
73266;SDS011;61495;53.400;7.608;2023-11-18T08:38:00;26.95;;;14.38;;
73266;SDS011;61495;53.400;7.608;2023-11-18T08:40:26;31.88;;;15.07;;
73266;SDS011;61495;53.400;7.608;2023-11-18T08:42:52;30.15;;;14.25;;
73266;SDS011;61495;53.400;7.608;2023-11-18T08:45:21;30.60;;;13.57;;
73266;SDS011;61495;53.400;7.608;2023-11-18T08:47:52;30.27;;;14.00;;
73266;SDS011;61495;53.400;7.608;2023-11-18T08:50:18;29.05;;;14.55;;
73266;SDS011;61495;53.400;7.608;2023-11-18T08:52:44;31.85;;;15.73;;
73266;SDS011;61495;53.400;7.608;2023-11-18T08:55:15;30.50;;;13.82;;
73266;SDS011;61495;53.400;7.608;2023-11-18T08:57:44;30.45;;;13.75;;
73266;SDS011;61495;53.400;7.608;2023-11-18T09:00:17;27.15;;;12.68;;
73266;SDS011;61495;53.400;7.608;2023-11-18T09:03:02;32.60;;;14.52;;
73266;SDS011;61495;53.400;7.608;2023-11-18T09:05:30;32.47;;;14.80;;
73266;SDS011;61495;53.400;7.608;2023-11-18T09:07:57;29.88;;;13.50;;
73266;SDS011;61495;53.400;7.608;2023-11-18T09:10:25;30.02;;;13.30;;
73266;SDS011;61495;53.400;7.608;2023-11-18T09:12:51;27.38;;;14.88;;
73266;SDS011;61495;53.400;7.608;2023-11-18T09:15:18;26.13;;;14.07;;
73266;SDS011;61495;53.400;7.608;2023-11-18T09:17:47;26.27;;;12.82;;
73266;SDS011;61495;53.400;7.608;2023-11-18T09:20:13;32.13;;;14.43;;
73266;SDS011;61495;53.400;7.608;2023-11-18T09:22:43;23.65;;;13.50;;
73266;SDS011;61495;53.400;7.608;2023-11-18T09:25:09;22.88;;;12.35;;
73266;SDS011;61495;53.400;7.608;2023-11-18T09:27:36;22.77;;;11.68;;
73266;SDS011;61495;53.400;7.608;2023-11-18T09:30:01;21.02;;;11.18;;
73266;SDS011;61495;53.400;7.608;2023-11-18T09:32:27;20.48;;;10.50;;
73266;SDS011;61495;53.400;7.608;2023-11-18T09:34:53;19.42;;;10.00;;
73266;SDS011;61495;53.400;7.608;2023-11-18T09:37:18;20.17;;;10.88;;
73266;SDS011;61495;53.400;7.608;2023-11-18T09:39:43;24.30;;;11.13;;
73266;SDS011;61495;53.400;7.608;2023-11-18T09:42:10;24.42;;;12.25;;
73266;SDS011;61495;53.400;7.608;2023-11-18T09:44:39;22.02;;;12.32;;
73266;SDS011;61495;53.400;7.608;2023-11-18T09:47:07;24.23;;;12.68;;
73266;SDS011;61495;53.400;7.608;2023-11-18T09:49:39;20.33;;;11.25;;
73266;SDS011;61495;53.400;7.608;2023-11-18T09:52:09;19.55;;;9.95;;
73266;SDS011;61495;53.400;7.608;2023-11-18T09:54:58;21.48;;;10.70;;
73266;SDS011;61495;53.400;7.608;2023-11-18T09:57:31;19.83;;;10.43;;
73266;SDS011;61495;53.400;7.608;2023-11-18T10:00:06;18.50;;;10.32;;
73266;SDS011;61495;53.400;7.608;2023-11-18T10:02:45;19.35;;;10.15;;
73266;SDS011;61495;53.400;7.608;2023-11-18T10:05:11;18.40;;;9.15;;
73266;SDS011;61495;53.400;7.608;2023-11-18T10:07:41;16.77;;;9.88;;
73266;SDS011;61495;53.400;7.608;2023-11-18T10:10:07;18.52;;;10.35;;
73266;SDS011;61495;53.400;7.608;2023-11-18T10:12:43;20.13;;;9.25;;
73266;SDS011;61495;53.400;7.608;2023-11-18T10:15:17;20.10;;;10.30;;
73266;SDS011;61495;53.400;7.608;2023-11-18T10:17:51;18.88;;;10.00;;
73266;SDS011;61495;53.400;7.608;2023-11-18T10:20:22;21.80;;;10.60;;
73266;SDS011;61495;53.400;7.608;2023-11-18T10:23:09;18.85;;;10.18;;
73266;SDS011;61495;53.400;7.608;2023-11-18T10:25:56;18.85;;;10.18;;
73266;SDS011;61495;53.400;7.608;2023-11-18T10:28:25;18.42;;;9.77;;
73266;SDS011;61495;53.400;7.608;2023-11-18T10:31:02;20.65;;;9.68;;
73266;SDS011;61495;53.400;7.608;2023-11-18T10:33:38;15.50;;;8.77;;
73266;SDS011;61495;53.400;7.608;2023-11-18T10:36:07;17.30;;;10.45;;
73266;SDS011;61495;53.400;7.608;2023-11-18T10:38:47;16.00;;;10.23;;
73266;SDS011;61495;53.400;7.608;2023-11-18T10:41:17;18.58;;;9.02;;
73266;SDS011;61495;53.400;7.608;2023-11-18T10:43:43;17.60;;;8.77;;
73266;SDS011;61495;53.400;7.608;2023-11-18T10:46:10;16.17;;;8.90;;
73266;SDS011;61495;53.400;7.608;2023-11-18T10:48:50;17.08;;;8.95;;
73266;SDS011;61495;53.400;7.608;2023-11-18T10:51:19;18.65;;;9.88;;
73266;SDS011;61495;53.400;7.608;2023-11-18T10:53:49;15.30;;;9.07;;
73266;SDS011;61495;53.400;7.608;2023-11-18T10:56:45;16.98;;;9.55;;
73266;SDS011;61495;53.400;7.608;2023-11-18T10:59:11;16.05;;;8.95;;
73266;SDS011;61495;53.400;7.608;2023-11-18T11:01:41;17.20;;;9.48;;
73266;SDS011;61495;53.400;7.608;2023-11-18T11:04:11;16.02;;;9.57;;
73266;SDS011;61495;53.400;7.608;2023-11-18T11:06:40;18.70;;;8.95;;
73266;SDS011;61495;53.400;7.608;2023-11-18T11:09:07;16.42;;;9.38;;
73266;SDS011;61495;53.400;7.608;2023-11-18T11:11:57;17.83;;;9.23;;
73266;SDS011;61495;53.400;7.608;2023-11-18T11:14:40;19.17;;;8.60;;
73266;SDS011;61495;53.400;7.608;2023-11-18T11:17:12;17.92;;;9.93;;
73266;SDS011;61495;53.400;7.608;2023-11-18T11:19:55;17.10;;;8.95;;
73266;SDS011;61495;53.400;7.608;2023-11-18T11:28:15;19.98;;;9.52;;
73266;SDS011;61495;53.400;7.608;2023-11-18T11:33:32;17.02;;;9.35;;
73266;SDS011;61495;53.400;7.608;2023-11-18T11:36:05;19.85;;;9.15;;
73266;SDS011;61495;53.400;7.608;2023-11-18T11:38:36;20.35;;;9.75;;
73266;SDS011;61495;53.400;7.608;2023-11-18T11:41:02;1107.90;;;280.10;;
73266;SDS011;61495;53.400;7.608;2023-11-18T11:43:30;1733.43;;;476.38;;
73266;SDS011;61495;53.400;7.608;2023-11-18T11:45:59;1901.78;;;588.13;;
73266;SDS011;61495;53.400;7.608;2023-11-18T11:48:28;1665.80;;;445.75;;
73266;SDS011;61495;53.400;7.608;2023-11-18T11:51:10;574.65;;;147.63;;
73266;SDS011;61495;53.400;7.608;2023-11-18T11:56:47;102.03;;;24.17;;
73266;SDS011;61495;53.400;7.608;2023-11-18T12:02:19;21.85;;;10.02;;
73266;SDS011;61495;53.400;7.608;2023-11-18T12:04:49;17.98;;;9.65;;
73266;SDS011;61495;53.400;7.608;2023-11-18T12:07:22;15.35;;;8.25;;
73266;SDS011;61495;53.400;7.608;2023-11-18T12:09:51;16.27;;;8.48;;
73266;SDS011;61495;53.400;7.608;2023-11-18T12:12:23;16.33;;;8.45;;
73266;SDS011;61495;53.400;7.608;2023-11-18T12:14:53;25.25;;;8.25;;
73266;SDS011;61495;53.400;7.608;2023-11-18T12:17:25;16.90;;;8.68;;
73266;SDS011;61495;53.400;7.608;2023-11-18T12:19:57;21.13;;;8.82;;
73266;SDS011;61495;53.400;7.608;2023-11-18T12:22:31;17.73;;;8.93;;
73266;SDS011;61495;53.400;7.608;2023-11-18T12:25:39;16.88;;;8.50;;
73266;SDS011;61495;53.400;7.608;2023-11-18T12:28:15;18.65;;;9.15;;
73266;SDS011;61495;53.400;7.608;2023-11-18T12:30:42;17.60;;;8.88;;
73266;SDS011;61495;53.400;7.608;2023-11-18T12:33:17;17.50;;;9.27;;
73266;SDS011;61495;53.400;7.608;2023-11-18T12:41:00;17.52;;;9.13;;
73266;SDS011;61495;53.400;7.608;2023-11-18T12:43:37;16.45;;;8.63;;
73266;SDS011;61495;53.400;7.608;2023-11-18T12:49:02;17.05;;;8.90;;
73266;SDS011;61495;53.400;7.608;2023-11-18T12:51:28;18.77;;;8.98;;
73266;SDS011;61495;53.400;7.608;2023-11-18T12:53:56;18.42;;;9.27;;
73266;SDS011;61495;53.400;7.608;2023-11-18T12:56:23;18.88;;;9.18;;
73266;SDS011;61495;53.400;7.608;2023-11-18T12:58:50;17.45;;;8.27;;
73266;SDS011;61495;53.400;7.608;2023-11-18T13:01:16;19.55;;;9.38;;
73266;SDS011;61495;53.400;7.608;2023-11-18T13:03:41;18.17;;;9.20;;
73266;SDS011;61495;53.400;7.608;2023-11-18T13:06:11;18.08;;;8.48;;
73266;SDS011;61495;53.400;7.608;2023-11-18T13:08:40;17.83;;;9.38;;
73266;SDS011;61495;53.400;7.608;2023-11-18T13:11:06;18.15;;;9.45;;
73266;SDS011;61495;53.400;7.608;2023-11-18T13:13:37;19.52;;;8.75;;
73266;SDS011;61495;53.400;7.608;2023-11-18T13:16:04;21.02;;;9.80;;
73266;SDS011;61495;53.400;7.608;2023-11-18T13:18:40;21.08;;;10.15;;
73266;SDS011;61495;53.400;7.608;2023-11-18T13:21:07;20.70;;;9.27;;
73266;SDS011;61495;53.400;7.608;2023-11-18T13:23:32;19.77;;;9.20;;
73266;SDS011;61495;53.400;7.608;2023-11-18T13:25:57;18.30;;;9.23;;
73266;SDS011;61495;53.400;7.608;2023-11-18T13:28:28;22.23;;;10.85;;
73266;SDS011;61495;53.400;7.608;2023-11-18T13:30:54;18.02;;;8.73;;
73266;SDS011;61495;53.400;7.608;2023-11-18T13:33:20;23.70;;;10.18;;
73266;SDS011;61495;53.400;7.608;2023-11-18T13:35:46;19.85;;;9.57;;
73266;SDS011;61495;53.400;7.608;2023-11-18T13:38:12;20.55;;;9.75;;
73266;SDS011;61495;53.400;7.608;2023-11-18T13:40:42;18.30;;;9.82;;
73266;SDS011;61495;53.400;7.608;2023-11-18T13:43:14;18.77;;;8.80;;
73266;SDS011;61495;53.400;7.608;2023-11-18T13:45:40;20.90;;;9.45;;
73266;SDS011;61495;53.400;7.608;2023-11-18T13:48:07;20.00;;;8.98;;
73266;SDS011;61495;53.400;7.608;2023-11-18T13:50:34;19.50;;;8.98;;
73266;SDS011;61495;53.400;7.608;2023-11-18T13:53:02;20.40;;;8.95;;
73266;SDS011;61495;53.400;7.608;2023-11-18T13:55:28;21.58;;;9.82;;
73266;SDS011;61495;53.400;7.608;2023-11-18T13:57:57;21.83;;;10.30;;
73266;SDS011;61495;53.400;7.608;2023-11-18T14:00:26;21.77;;;10.38;;
73266;SDS011;61495;53.400;7.608;2023-11-18T14:02:55;17.38;;;9.40;;
73266;SDS011;61495;53.400;7.608;2023-11-18T14:05:22;18.60;;;9.50;;
73266;SDS011;61495;53.400;7.608;2023-11-18T14:07:49;20.35;;;10.07;;
73266;SDS011;61495;53.400;7.608;2023-11-18T14:10:20;21.90;;;9.55;;
73266;SDS011;61495;53.400;7.608;2023-11-18T14:13:00;20.60;;;9.63;;
73266;SDS011;61495;53.400;7.608;2023-11-18T14:15:27;25.17;;;10.23;;
73266;SDS011;61495;53.400;7.608;2023-11-18T14:17:54;21.02;;;9.10;;
73266;SDS011;61495;53.400;7.608;2023-11-18T14:20:19;21.02;;;9.73;;
73266;SDS011;61495;53.400;7.608;2023-11-18T14:22:47;22.35;;;10.27;;
73266;SDS011;61495;53.400;7.608;2023-11-18T14:25:13;21.73;;;9.50;;
73266;SDS011;61495;53.400;7.608;2023-11-18T14:27:40;19.65;;;9.30;;
73266;SDS011;61495;53.400;7.608;2023-11-18T14:30:06;23.30;;;9.63;;
73266;SDS011;61495;53.400;7.608;2023-11-18T14:32:34;24.55;;;10.02;;
73266;SDS011;61495;53.400;7.608;2023-11-18T14:35:00;23.10;;;9.45;;
73266;SDS011;61495;53.400;7.608;2023-11-18T14:37:25;24.38;;;10.50;;
73266;SDS011;61495;53.400;7.608;2023-11-18T14:39:51;21.67;;;10.60;;
73266;SDS011;61495;53.400;7.608;2023-11-18T14:42:17;18.10;;;9.38;;
73266;SDS011;61495;53.400;7.608;2023-11-18T14:44:46;23.75;;;9.35;;
73266;SDS011;61495;53.400;7.608;2023-11-18T14:47:11;22.35;;;9.10;;
73266;SDS011;61495;53.400;7.608;2023-11-18T14:49:37;27.23;;;10.70;;
73266;SDS011;61495;53.400;7.608;2023-11-18T14:52:02;23.73;;;10.95;;
73266;SDS011;61495;53.400;7.608;2023-11-18T14:54:28;22.15;;;9.75;;
73266;SDS011;61495;53.400;7.608;2023-11-18T14:56:55;25.58;;;10.82;;
73266;SDS011;61495;53.400;7.608;2023-11-18T14:59:20;24.40;;;10.70;;